createdAt,value
2018-11-07T00:01:11.887Z,90.30
2018-11-07T00:03:41.290Z,90.30
2018-11-07T00:06:10.595Z,90.60
2018-11-07T00:08:40.055Z,90.60
2018-11-07T00:11:09.680Z,87.40
2018-11-07T00:13:39.115Z,86.10
2018-11-07T00:16:09.380Z,87.30
2018-11-07T00:18:39.207Z,87.00
2018-11-07T00:21:08.440Z,89.00
2018-11-07T00:23:37.648Z,90.10
2018-11-07T00:26:07.002Z,87.70
2018-11-07T00:28:36.278Z,87.50
2018-11-07T00:31:05.503Z,87.20
2018-11-07T00:33:34.689Z,88.50
2018-11-07T00:36:05.389Z,87.10
2018-11-07T00:38:34.702Z,86.60
2018-11-07T00:41:03.958Z,87.10
2018-11-07T00:43:33.406Z,86.70
2018-11-07T00:46:02.627Z,87.90
2018-11-07T00:48:32.008Z,89.90
2018-11-07T00:51:01.273Z,90.40
2018-11-07T00:53:30.474Z,90.80
2018-11-07T00:56:03.476Z,91.30
2018-11-07T00:58:34.893Z,92.00
2018-11-07T01:01:04.147Z,91.50
2018-11-07T01:03:33.393Z,89.20
2018-11-07T01:06:02.774Z,90.50
2018-11-07T01:08:32.273Z,91.10
2018-11-07T01:11:02.917Z,91.70
2018-11-07T01:13:32.144Z,91.90
2018-11-07T01:16:02.370Z,91.60
2018-11-07T01:18:31.596Z,91.70
2018-11-07T01:21:00.820Z,90.90
2018-11-07T01:23:29.996Z,88.60
2018-11-07T01:26:00.239Z,90.50
2018-11-07T01:28:29.434Z,90.70
2018-11-07T01:30:58.644Z,90.00
2018-11-07T01:33:27.882Z,90.30
2018-11-07T01:35:58.228Z,90.30
2018-11-07T01:38:27.431Z,90.60
2018-11-07T01:40:57.490Z,91.40
2018-11-07T01:43:26.674Z,90.80
2018-11-07T01:45:57.996Z,90.70
2018-11-07T01:48:27.726Z,91.50
2018-11-07T01:50:57.845Z,90.20
2018-11-07T01:53:27.822Z,90.10
2018-11-07T01:55:57.206Z,90.50
2018-11-07T01:58:27.386Z,91.10
2018-11-07T02:00:56.619Z,90.10
2018-11-07T02:03:25.838Z,86.90
2018-11-07T02:05:55.247Z,86.90
2018-11-07T02:08:28.681Z,86.90
2018-11-07T02:10:59.197Z,90.20
2018-11-07T02:13:29.355Z,90.50
2018-11-07T02:15:59.825Z,91.00
2018-11-07T02:18:29.091Z,90.70
2018-11-07T02:20:59.227Z,90.10
2018-11-07T02:23:28.431Z,91.00
2018-11-07T02:25:57.779Z,91.30
2018-11-07T02:28:26.996Z,91.50
2018-11-07T02:30:57.078Z,92.40
2018-11-07T02:33:26.550Z,92.00
2018-11-07T02:35:55.902Z,91.30
2018-11-07T02:38:25.132Z,93.30
2018-11-07T02:40:56.950Z,92.10
2018-11-07T02:43:26.158Z,92.70
2018-11-07T02:45:57.241Z,93.80
2018-11-07T02:48:26.435Z,93.10
2018-11-07T02:50:56.461Z,92.10
2018-11-07T02:53:25.951Z,90.60
2018-11-07T02:55:56.206Z,89.60
2018-11-07T02:58:25.441Z,92.20
2018-11-07T03:00:54.750Z,91.70
2018-11-07T03:03:24.605Z,92.00
2018-11-07T03:05:54.145Z,90.70
2018-11-07T03:08:23.471Z,93.10
2018-11-07T03:10:52.736Z,90.90
2018-11-07T03:13:22.396Z,89.50
2018-11-07T03:15:51.912Z,90.10
2018-11-07T03:18:21.091Z,91.60
2018-11-07T03:20:51.087Z,90.90
2018-11-07T03:23:20.329Z,87.30
2018-11-07T03:25:51.854Z,87.50
2018-11-07T03:28:21.066Z,86.20
2018-11-07T03:30:50.271Z,86.80
2018-11-07T03:33:19.919Z,86.70
2018-11-07T03:35:49.281Z,88.40
2018-11-07T03:38:18.590Z,90.00
2018-11-07T03:40:47.804Z,90.30
2018-11-07T03:43:17.011Z,90.40
2018-11-07T03:45:51.431Z,91.30
2018-11-07T03:48:20.843Z,91.50
2018-11-07T03:50:50.548Z,92.70
2018-11-07T03:53:19.791Z,91.90
2018-11-07T03:55:49.078Z,92.50
2018-11-07T03:58:19.222Z,85.60
2018-11-07T04:00:48.435Z,89.90
2018-11-07T04:03:17.644Z,90.10
2018-11-07T04:05:46.993Z,91.00
2018-11-07T04:08:17.220Z,91.00
2018-11-07T04:10:46.564Z,91.60
2018-11-07T04:13:16.442Z,91.50
2018-11-07T04:15:46.932Z,92.20
2018-11-07T04:18:16.061Z,91.80
2018-11-07T04:20:45.239Z,91.70
2018-11-07T04:23:14.480Z,91.50
2018-11-07T04:25:46.744Z,91.90
2018-11-07T04:28:15.940Z,91.90
2018-11-07T04:30:46.142Z,90.50
2018-11-07T04:33:15.596Z,88.70
2018-11-07T04:35:45.797Z,88.90
2018-11-07T04:38:15.023Z,90.00
2018-11-07T04:40:44.181Z,90.30
2018-11-07T04:43:13.355Z,90.20
2018-11-07T04:45:43.626Z,90.10
2018-11-07T04:48:13.064Z,90.00
2018-11-07T04:50:43.331Z,90.90
2018-11-07T04:53:12.527Z,91.20
2018-11-07T04:55:42.788Z,91.40
2018-11-07T04:58:12.458Z,90.50
2018-11-07T05:00:41.919Z,85.50
2018-11-07T05:03:11.705Z,86.90
2018-11-07T05:05:42.484Z,88.90
2018-11-07T05:08:11.692Z,90.60
2018-11-07T05:10:41.984Z,90.00
2018-11-07T05:13:11.453Z,90.50
2018-11-07T05:15:40.824Z,90.30
2018-11-07T05:18:10.805Z,89.20
2018-11-07T05:20:40.007Z,88.60
2018-11-07T05:23:09.213Z,85.70
2018-11-07T05:25:38.458Z,88.90
2018-11-07T05:28:07.730Z,91.80
2018-11-07T05:30:40.011Z,89.80
2018-11-07T05:33:09.229Z,90.20
2018-11-07T05:35:38.515Z,90.70
2018-11-07T05:38:08.418Z,91.20
2018-11-07T05:40:37.735Z,90.50
2018-11-07T05:43:06.949Z,90.60
2018-11-07T05:45:38.445Z,88.40
2018-11-07T05:48:09.606Z,84.80
2018-11-07T05:50:39.019Z,87.10
2018-11-07T05:53:08.900Z,88.90
2018-11-07T05:55:38.582Z,86.20
2018-11-07T05:58:07.988Z,83.00
2018-11-07T06:00:37.429Z,83.50
2018-11-07T06:03:06.644Z,82.80
2018-11-07T06:05:37.129Z,81.20
2018-11-07T06:08:07.625Z,84.00
2018-11-07T06:10:38.496Z,86.30
2018-11-07T06:13:08.479Z,88.60
2018-11-07T06:15:38.692Z,86.10
2018-11-07T06:18:07.873Z,86.50
2018-11-07T06:20:37.050Z,88.00
2018-11-07T06:23:06.281Z,87.40
2018-11-07T06:25:36.401Z,84.60
2018-11-07T06:28:05.938Z,83.50
2018-11-07T06:30:35.292Z,84.20
2018-11-07T06:33:04.680Z,86.40
2018-11-07T06:35:37.436Z,85.50
2018-11-07T06:38:06.831Z,85.60
2018-11-07T06:40:36.071Z,84.90
2018-11-07T06:43:05.400Z,86.70
2018-11-07T06:45:35.655Z,86.50
2018-11-07T06:48:04.950Z,86.10
2018-11-07T06:50:34.213Z,87.80
2018-11-07T06:53:04.152Z,85.10
2018-11-07T06:55:33.640Z,82.70
2018-11-07T06:58:02.826Z,83.90
2018-11-07T07:00:34.542Z,85.80
2018-11-07T07:03:05.038Z,86.00
2018-11-07T07:05:34.774Z,88.40
2018-11-07T07:08:04.043Z,88.40
2018-11-07T07:10:34.755Z,89.00
2018-11-07T07:13:04.406Z,89.70
2018-11-07T07:15:33.754Z,90.00
2018-11-07T07:18:03.361Z,88.70
2018-11-07T07:20:32.498Z,89.10
2018-11-07T07:23:01.982Z,88.90
2018-11-07T07:25:32.693Z,88.40
2018-11-07T07:28:01.980Z,84.50
2018-11-07T07:30:31.213Z,83.90
2018-11-07T07:33:00.523Z,83.90
2018-11-07T07:35:30.804Z,83.90
2018-11-07T07:38:00.144Z,84.10
2018-11-07T07:40:35.400Z,85.20
2018-11-07T07:43:04.887Z,85.40
2018-11-07T07:45:40.140Z,84.00
2018-11-07T07:48:09.629Z,84.50
2018-11-07T07:50:38.836Z,84.90
2018-11-07T07:53:08.807Z,86.60
2018-11-07T07:55:40.675Z,86.90
2018-11-07T07:58:10.015Z,85.80
2018-11-07T08:00:39.270Z,85.20
2018-11-07T08:03:08.499Z,85.20
2018-11-07T08:05:39.007Z,87.60
2018-11-07T08:08:09.191Z,89.10
2018-11-07T08:10:39.482Z,90.00
2018-11-07T08:15:47.972Z,88.20
2018-11-07T08:18:22.352Z,86.90
2018-11-07T08:21:01.982Z,85.00
2018-11-07T08:26:23.983Z,86.80
2018-11-07T08:29:09.702Z,84.90
2018-11-07T08:34:47.883Z,85.40
2018-11-07T10:27:30.250Z,53.40
2018-11-07T10:51:13.472Z,40.00
2018-11-07T10:53:48.800Z,38.60
2018-11-07T11:02:04.005Z,36.50
2018-11-07T11:04:51.761Z,38.00
2018-11-07T11:07:28.446Z,35.50
2018-11-07T11:10:41.428Z,34.60
2018-11-07T11:16:28.062Z,33.90
2018-11-07T11:18:57.547Z,32.40
2018-11-07T11:21:26.798Z,33.30
2018-11-07T11:23:56.036Z,33.60
2018-11-07T11:26:25.248Z,34.50
2018-11-07T11:31:29.249Z,31.80
2018-11-07T11:33:58.537Z,32.60
2018-11-07T11:36:27.940Z,31.00
2018-11-07T11:38:57.260Z,30.90
2018-11-07T11:41:27.194Z,30.70
2018-11-07T11:43:56.523Z,30.40
2018-11-07T11:46:25.791Z,31.90
2018-11-07T11:48:55.936Z,32.60
2018-11-07T11:51:25.695Z,30.20
2018-11-07T11:53:55.889Z,30.70
2018-11-07T11:56:25.424Z,30.60
2018-11-07T11:58:55.114Z,30.30
2018-11-07T12:01:24.557Z,30.90
2018-11-07T12:03:54.310Z,31.50
2018-11-07T12:06:23.679Z,30.50
2018-11-07T12:08:53.270Z,30.90
2018-11-07T12:11:22.598Z,31.40
2018-11-07T12:13:51.837Z,30.60
2018-11-07T12:16:22.292Z,30.60
2018-11-07T12:18:51.559Z,31.50
2018-11-07T12:21:21.474Z,29.90
2018-11-07T12:23:51.427Z,29.70
2018-11-07T12:26:20.726Z,29.70
2018-11-07T12:28:50.824Z,30.40
2018-11-07T12:31:20.093Z,31.00
2018-11-07T12:33:49.609Z,31.30
2018-11-07T12:36:18.891Z,31.70
2018-11-07T12:38:48.296Z,30.90
2018-11-07T12:41:17.498Z,31.30
2018-11-07T12:43:48.110Z,32.20
2018-11-07T12:46:17.495Z,30.20
2018-11-07T12:48:47.101Z,29.70
2018-11-07T12:51:16.477Z,29.80
2018-11-07T12:53:47.238Z,29.90
2018-11-07T12:56:16.515Z,29.20
2018-11-07T12:58:45.788Z,30.60
2018-11-07T13:01:15.178Z,30.50
2018-11-07T13:03:44.469Z,30.80
2018-11-07T13:06:14.885Z,29.70
2018-11-07T13:08:44.320Z,29.10
2018-11-07T13:11:13.688Z,29.00
2018-11-07T13:13:43.031Z,28.70
2018-11-07T13:16:13.405Z,29.40
2018-11-07T13:18:42.835Z,30.50
2018-11-07T13:21:23.037Z,29.80
2018-11-07T13:24:14.826Z,29.80
2018-11-07T13:26:51.812Z,29.20
2018-11-07T13:29:21.107Z,29.80
2018-11-07T13:31:51.019Z,29.40
2018-11-07T13:34:23.450Z,29.60
2018-11-07T13:36:52.973Z,30.70
2018-11-07T13:39:23.236Z,29.70
2018-11-07T13:41:52.542Z,29.60
2018-11-07T13:44:23.021Z,29.20
2018-11-07T13:46:52.291Z,27.60
2018-11-07T13:49:21.659Z,27.60
2018-11-07T13:51:51.073Z,27.00
2018-11-07T13:54:21.910Z,26.80
2018-11-07T13:56:51.881Z,27.40
2018-11-07T13:59:21.247Z,27.00
2018-11-07T14:01:50.499Z,26.80
2018-11-07T14:04:21.438Z,26.00
2018-11-07T14:06:50.684Z,25.00
2018-11-07T14:09:20.064Z,24.10
2018-11-07T14:11:53.091Z,23.40
2018-11-07T14:14:27.711Z,22.50
2018-11-07T14:16:58.414Z,22.00
2018-11-07T14:19:30.528Z,21.30
2018-11-07T14:22:00.290Z,20.90
2018-11-07T14:24:30.528Z,21.60
2018-11-07T14:27:01.338Z,20.50
2018-11-07T14:29:31.548Z,20.60
2018-11-07T14:32:01.570Z,18.90
2018-11-07T14:34:31.302Z,18.90
2018-11-07T14:37:00.517Z,18.20
2018-11-07T14:39:30.538Z,17.10
2018-11-07T14:42:01.758Z,17.70
2018-11-07T14:44:33.547Z,17.70
2018-11-07T14:47:02.873Z,19.20
2018-11-07T14:49:32.434Z,19.80
2018-11-07T14:52:03.838Z,20.30
2018-11-07T14:54:33.352Z,21.70
2018-11-07T14:57:04.003Z,23.10
2018-11-07T14:59:34.872Z,24.90
2018-11-07T15:02:06.554Z,26.10
2018-11-07T15:04:38.929Z,28.20
2018-11-07T15:07:12.773Z,31.10
2018-11-07T15:18:13.591Z,39.00
2018-11-07T15:23:24.059Z,42.60
2018-11-07T15:25:57.065Z,43.50
2018-11-07T15:28:28.651Z,44.80
2018-11-07T15:30:58.825Z,45.70
2018-11-07T15:33:29.140Z,47.90
2018-11-07T15:36:02.217Z,49.30
2018-11-07T15:38:32.871Z,49.30
2018-11-07T15:41:02.123Z,49.80
2018-11-07T15:43:33.373Z,51.10
2018-11-07T15:46:03.460Z,52.80
2018-11-07T15:48:32.730Z,52.80
2018-11-07T15:51:07.121Z,52.60
2018-11-07T15:53:36.599Z,51.30
2018-11-07T15:56:13.607Z,53.40
2018-11-07T15:58:43.334Z,54.70
2018-11-07T16:01:12.808Z,60.00
2018-11-07T16:03:48.037Z,60.40
2018-11-07T16:06:20.490Z,60.90
2018-11-07T16:08:49.907Z,62.30
2018-11-07T16:11:20.181Z,61.60
2018-11-07T16:13:49.498Z,60.10
2018-11-07T16:16:22.917Z,64.00
2018-11-07T16:18:52.421Z,63.70
2018-11-07T16:21:21.865Z,66.00
2018-11-07T16:23:51.229Z,64.10
2018-11-07T16:26:20.710Z,65.50
2018-11-07T16:28:49.994Z,66.90
2018-11-07T16:31:19.129Z,70.40
2018-11-07T16:33:48.355Z,68.80
2018-11-07T16:36:19.657Z,68.00
2018-11-07T16:38:48.879Z,70.90
2018-11-07T16:41:18.161Z,68.90
2018-11-07T16:43:47.283Z,71.60
2018-11-07T16:46:16.659Z,74.30
2018-11-07T16:48:45.865Z,74.50
2018-11-07T16:51:15.051Z,75.90
2018-11-07T16:53:44.234Z,78.00
2018-11-07T16:56:13.443Z,75.90
2018-11-07T16:58:42.640Z,77.10
2018-11-07T17:01:12.167Z,78.10
2018-11-07T17:03:41.969Z,77.40
2018-11-07T17:06:14.267Z,76.30
2018-11-07T17:08:44.541Z,73.00
2018-11-07T17:11:13.760Z,72.80
2018-11-07T17:13:42.936Z,77.10
2018-11-07T17:16:13.231Z,80.60
2018-11-07T17:18:43.404Z,82.90
2018-11-07T17:21:12.722Z,83.60
2018-11-07T17:23:42.792Z,85.80
2018-11-07T17:26:13.047Z,86.70
2018-11-07T17:28:42.894Z,86.80
2018-11-07T17:31:12.164Z,84.40
2018-11-07T17:33:42.359Z,83.20
2018-11-07T17:36:12.715Z,83.60
2018-11-07T17:38:42.669Z,85.70
2018-11-07T17:41:12.047Z,84.40
2018-11-07T17:43:41.197Z,82.30
2018-11-07T17:46:10.525Z,80.30
2018-11-07T17:48:39.849Z,78.30
2018-11-07T17:51:08.975Z,82.80
2018-11-07T17:53:38.289Z,84.20
2018-11-07T17:56:08.863Z,84.50
2018-11-07T17:58:38.923Z,86.30
2018-11-07T18:01:10.227Z,83.40
2018-11-07T18:03:39.479Z,82.70
2018-11-07T18:06:09.779Z,85.00
2018-11-07T18:08:39.846Z,84.90
2018-11-07T18:11:09.008Z,85.60
2018-11-07T18:13:38.250Z,84.00
2018-11-07T18:16:07.432Z,84.20
2018-11-07T18:18:36.658Z,85.50
2018-11-07T18:21:08.259Z,84.50
2018-11-07T18:23:38.290Z,83.90
2018-11-07T18:26:09.339Z,82.60
2018-11-07T18:28:38.540Z,80.90
2018-11-07T18:31:09.509Z,83.00
2018-11-07T18:33:38.739Z,82.60
2018-11-07T18:36:11.726Z,81.70
2018-11-07T18:38:40.998Z,91.10
2018-11-07T18:41:10.797Z,92.20
2018-11-07T18:43:40.034Z,90.90
2018-11-07T18:46:10.735Z,90.60
2018-11-07T18:48:39.925Z,88.50
2018-11-07T18:51:11.315Z,90.80
2018-11-07T18:53:40.507Z,89.60
2018-11-07T18:56:11.800Z,88.30
2018-11-07T18:58:41.006Z,88.70
2018-11-07T19:01:11.958Z,88.80
2018-11-07T19:03:41.266Z,88.30
2018-11-07T19:06:15.864Z,87.60
2018-11-07T19:08:45.091Z,87.20
2018-11-07T19:11:14.328Z,84.90
2018-11-07T19:13:43.844Z,88.50
2018-11-07T19:16:17.116Z,87.20
2018-11-07T19:18:48.554Z,82.30
2018-11-07T19:21:18.755Z,79.90
2018-11-07T19:23:47.955Z,80.40
2018-11-07T19:26:34.660Z,82.60
2018-11-07T19:29:06.107Z,82.60
2018-11-07T19:31:36.644Z,85.60
2018-11-07T19:34:06.668Z,82.60
2018-11-07T19:36:37.543Z,84.80
2018-11-07T19:39:08.881Z,83.40
2018-11-07T19:41:38.777Z,83.60
2018-11-07T19:44:09.507Z,83.50
2018-11-07T19:46:40.837Z,82.80
2018-11-07T19:49:12.074Z,83.50
2018-11-07T19:51:42.570Z,78.90
2018-11-07T19:54:12.948Z,76.70
2018-11-07T19:56:48.653Z,77.20
2018-11-07T19:59:20.241Z,78.60
2018-11-07T20:01:59.737Z,79.10
2018-11-07T20:04:33.929Z,79.80
2018-11-07T20:07:04.192Z,80.50
2018-11-07T20:09:37.420Z,80.00
2018-11-07T20:12:10.402Z,80.40
2018-11-07T20:14:43.660Z,80.80
2018-11-07T20:17:21.540Z,79.60
2018-11-07T20:19:53.158Z,80.20
2018-11-07T20:22:47.241Z,80.90
2018-11-07T20:25:27.568Z,79.70
2018-11-07T20:28:07.790Z,79.50
2018-11-07T20:30:43.324Z,76.60
2018-11-07T20:33:23.745Z,77.80
2018-11-07T20:36:00.413Z,78.40
2018-11-07T20:38:34.735Z,74.70
2018-11-07T20:41:11.118Z,77.10
2018-11-07T20:43:45.288Z,76.30
2018-11-07T20:46:18.955Z,76.00
2018-11-07T20:48:49.549Z,76.10
2018-11-07T20:51:20.072Z,77.40
2018-11-07T20:53:55.739Z,78.70
2018-11-07T20:56:28.467Z,80.00
2018-11-07T20:58:58.689Z,81.10
2018-11-07T21:01:30.720Z,79.80
2018-11-07T21:04:00.955Z,80.80
2018-11-07T21:06:30.735Z,80.90
2018-11-07T21:09:03.262Z,77.70
2018-11-07T21:11:32.673Z,79.00
2018-11-07T21:14:02.679Z,79.80
2018-11-07T21:16:32.040Z,80.90
2018-11-07T21:19:02.585Z,80.80
2018-11-07T21:21:33.555Z,80.30
2018-11-07T21:24:04.043Z,78.50
2018-11-07T21:26:33.368Z,77.60
2018-11-07T21:29:03.743Z,78.50
2018-11-07T21:31:33.356Z,78.50
2018-11-07T21:34:02.643Z,78.50
2018-11-07T21:36:33.432Z,77.80
2018-11-07T21:39:02.851Z,78.20
2018-11-07T21:41:32.910Z,77.70
2018-11-07T21:44:03.552Z,76.70
2018-11-07T21:46:33.769Z,77.10
2018-11-07T21:49:03.425Z,76.00
2018-11-07T21:51:32.750Z,77.40
2018-11-07T21:54:02.255Z,75.40
2018-11-07T21:56:32.660Z,74.30
2018-11-07T21:59:03.054Z,76.00
2018-11-07T22:01:33.022Z,77.50
2018-11-07T22:04:02.718Z,75.90
2018-11-07T22:06:31.961Z,77.70
2018-11-07T22:09:01.416Z,83.00
2018-11-07T22:11:32.664Z,83.10
2018-11-07T22:14:02.348Z,82.70
2018-11-07T22:16:31.873Z,83.20
2018-11-07T22:19:02.234Z,83.70
2018-11-07T22:21:31.662Z,83.80
2018-11-07T22:24:01.553Z,84.80
2018-11-07T22:26:31.661Z,83.80
2018-11-07T22:29:01.544Z,84.20
2018-11-07T22:31:31.304Z,83.30
2018-11-07T22:34:00.537Z,83.30
2018-11-07T22:36:29.707Z,83.10
2018-11-07T22:38:58.930Z,81.30
2018-11-07T22:41:29.398Z,82.00
2018-11-07T22:43:58.879Z,78.80
2018-11-07T22:46:28.359Z,80.40
2018-11-07T22:48:57.539Z,79.80
2018-11-07T22:51:27.422Z,80.40
2018-11-07T22:53:56.645Z,80.80
2018-11-07T22:56:27.546Z,80.00
2018-11-07T22:58:56.789Z,78.60
2018-11-07T23:01:31.185Z,79.00
2018-11-07T23:04:00.446Z,79.50
2018-11-07T23:06:29.720Z,80.30
2018-11-07T23:08:59.537Z,77.60
2018-11-07T23:11:30.124Z,76.90
2018-11-07T23:13:59.678Z,78.40
2018-11-07T23:16:28.894Z,78.60
2018-11-07T23:18:58.163Z,80.10
2018-11-07T23:21:28.236Z,79.80
2018-11-07T23:23:57.687Z,81.90
2018-11-07T23:26:28.030Z,83.00
2018-11-07T23:28:57.356Z,84.00
2018-11-07T23:31:26.637Z,83.30
2018-11-07T23:33:55.906Z,83.30
2018-11-07T23:36:26.277Z,79.90
2018-11-07T23:38:55.505Z,81.80
2018-11-07T23:41:24.910Z,82.40
2018-11-07T23:43:54.165Z,82.40
2018-11-07T23:46:25.549Z,82.90
2018-11-07T23:48:55.223Z,82.00
2018-11-07T23:51:24.394Z,80.70
2018-11-07T23:53:54.210Z,80.90
2018-11-07T23:56:25.381Z,79.70
2018-11-07T23:58:55.235Z,79.10
